sensor_id;sensor_type;location;lat;lon;timestamp;pressure;altitude;pressure_sealevel;temperature;humidity
45357;BME280;31092;51.924;21.448;2022-12-11T00:01:14;99285.81;;;-2.07;100.00
45357;BME280;31092;51.924;21.448;2022-12-11T00:03:40;99393.66;;;-1.53;100.00
45357;BME280;31092;51.924;21.448;2022-12-11T00:06:11;99299.53;;;-2.02;100.00
45357;BME280;31092;51.924;21.448;2022-12-11T00:08:37;99286.84;;;-2.10;100.00
45357;BME280;31092;51.924;21.448;2022-12-11T00:11:03;99390.09;;;-1.52;100.00
45357;BME280;31092;51.924;21.448;2022-12-11T00:13:28;99383.09;;;-1.53;100.00
45357;BME280;31092;51.924;21.448;2022-12-11T00:15:54;99313.75;;;-1.92;100.00
45357;BME280;31092;51.924;21.448;2022-12-11T00:18:20;99262.41;;;-2.25;100.00
45357;BME280;31092;51.924;21.448;2022-12-11T00:20:45;99375.94;;;-1.51;100.00
45357;BME280;31092;51.924;21.448;2022-12-11T00:23:11;99349.25;;;-1.72;100.00
45357;BME280;31092;51.924;21.448;2022-12-11T00:25:44;99338.22;;;-1.77;100.00
45357;BME280;31092;51.924;21.448;2022-12-11T00:28:14;99282.03;;;-2.16;100.00
45357;BME280;31092;51.924;21.448;2022-12-11T00:30:41;99329.34;;;-1.89;100.00
45357;BME280;31092;51.924;21.448;2022-12-11T00:33:08;99295.19;;;-2.03;100.00
45357;BME280;31092;51.924;21.448;2022-12-11T00:35:37;99270.66;;;-2.17;100.00
45357;BME280;31092;51.924;21.448;2022-12-11T00:38:03;99370.03;;;-1.55;100.00
45357;BME280;31092;51.924;21.448;2022-12-11T00:40:28;99371.63;;;-1.52;100.00
45357;BME280;31092;51.924;21.448;2022-12-11T00:42:54;99279.50;;;-2.18;100.00
45357;BME280;31092;51.924;21.448;2022-12-11T00:45:19;99364.00;;;-1.57;100.00
45357;BME280;31092;51.924;21.448;2022-12-11T00:47:45;99259.00;;;-2.14;100.00
45357;BME280;31092;51.924;21.448;2022-12-11T00:50:10;99303.06;;;-1.90;100.00
45357;BME280;31092;51.924;21.448;2022-12-11T00:52:36;99342.38;;;-1.62;100.00
45357;BME280;31092;51.924;21.448;2022-12-11T00:55:03;99355.88;;;-1.54;100.00
45357;BME280;31092;51.924;21.448;2022-12-11T00:57:28;99252.06;;;-2.15;100.00
45357;BME280;31092;51.924;21.448;2022-12-11T00:59:54;99359.47;;;-1.55;100.00
45357;BME280;31092;51.924;21.448;2022-12-11T01:02:19;99257.84;;;-2.10;100.00
45357;BME280;31092;51.924;21.448;2022-12-11T01:04:45;99345.31;;;-1.54;100.00
45357;BME280;31092;51.924;21.448;2022-12-11T01:07:10;99266.50;;;-2.08;100.00
45357;BME280;31092;51.924;21.448;2022-12-11T01:09:36;99346.69;;;-1.61;100.00
45357;BME280;31092;51.924;21.448;2022-12-11T01:12:20;99352.09;;;-1.62;100.00
45357;BME280;31092;51.924;21.448;2022-12-11T01:14:45;99202.09;;;-2.42;100.00
45357;BME280;31092;51.924;21.448;2022-12-11T01:17:11;99334.66;;;-1.65;100.00
45357;BME280;31092;51.924;21.448;2022-12-11T01:19:36;99347.94;;;-1.54;100.00
45357;BME280;31092;51.924;21.448;2022-12-11T01:22:02;99248.38;;;-2.12;100.00
45357;BME280;31092;51.924;21.448;2022-12-11T01:24:27;99266.06;;;-2.02;100.00
45357;BME280;31092;51.924;21.448;2022-12-11T01:26:53;99241.50;;;-2.15;100.00
45357;BME280;31092;51.924;21.448;2022-12-11T01:29:18;99216.84;;;-2.27;100.00
45357;BME280;31092;51.924;21.448;2022-12-11T01:31:43;99144.91;;;-2.66;100.00
45357;BME280;31092;51.924;21.448;2022-12-11T01:34:09;99247.59;;;-2.02;100.00
45357;BME280;31092;51.924;21.448;2022-12-11T01:36:34;99305.84;;;-1.68;100.00
45357;BME280;31092;51.924;21.448;2022-12-11T01:39:00;99149.22;;;-2.65;100.00
45357;BME280;31092;51.924;21.448;2022-12-11T01:41:25;99288.78;;;-1.75;100.00
45357;BME280;31092;51.924;21.448;2022-12-11T01:46:24;99275.91;;;-1.80;100.00
45357;BME280;31092;51.924;21.448;2022-12-11T01:48:50;99296.75;;;-1.64;100.00
45357;BME280;31092;51.924;21.448;2022-12-11T01:51:16;99293.28;;;-1.64;100.00
45357;BME280;31092;51.924;21.448;2022-12-11T01:53:45;99275.56;;;-1.75;100.00
45357;BME280;31092;51.924;21.448;2022-12-11T01:56:12;99291.38;;;-1.62;100.00
45357;BME280;31092;51.924;21.448;2022-12-11T01:58:45;99251.25;;;-1.91;100.00
45357;BME280;31092;51.924;21.448;2022-12-11T02:01:19;99296.88;;;-1.65;100.00
45357;BME280;31092;51.924;21.448;2022-12-11T02:03:47;99186.25;;;-2.29;100.00
45357;BME280;31092;51.924;21.448;2022-12-11T02:06:30;99280.41;;;-1.69;100.00
45357;BME280;31092;51.924;21.448;2022-12-11T02:08:56;99284.84;;;-1.70;100.00
45357;BME280;31092;51.924;21.448;2022-12-11T02:11:26;99121.59;;;-2.59;100.00
45357;BME280;31092;51.924;21.448;2022-12-11T02:14:10;99268.06;;;-1.69;100.00
45357;BME280;31092;51.924;21.448;2022-12-11T02:16:46;99243.50;;;-1.82;100.00
45357;BME280;31092;51.924;21.448;2022-12-11T02:22:57;99270.47;;;-1.65;100.00
45357;BME280;31092;51.924;21.448;2022-12-11T02:28:41;99195.47;;;-2.11;100.00
45357;BME280;31092;51.924;21.448;2022-12-11T02:31:19;99175.50;;;-2.26;100.00
45357;BME280;31092;51.924;21.448;2022-12-11T02:36:36;99163.59;;;-2.32;100.00
45357;BME280;31092;51.924;21.448;2022-12-11T02:39:03;99185.63;;;-2.20;100.00
45357;BME280;31092;51.924;21.448;2022-12-11T02:41:31;99218.44;;;-2.00;100.00
45357;BME280;31092;51.924;21.448;2022-12-11T02:44:00;99166.13;;;-2.30;100.00
45357;BME280;31092;51.924;21.448;2022-12-11T02:46:26;99262.91;;;-1.70;100.00
45357;BME280;31092;51.924;21.448;2022-12-11T02:48:55;99233.00;;;-1.95;100.00
45357;BME280;31092;51.924;21.448;2022-12-11T02:51:27;99242.78;;;-1.84;100.00
45357;BME280;31092;51.924;21.448;2022-12-11T02:53:57;99221.72;;;-1.97;100.00
45357;BME280;31092;51.924;21.448;2022-12-11T02:56:29;99266.38;;;-1.70;100.00
45357;BME280;31092;51.924;21.448;2022-12-11T02:59:02;99184.53;;;-2.18;100.00
45357;BME280;31092;51.924;21.448;2022-12-11T03:01:30;99168.03;;;-2.32;100.00
45357;BME280;31092;51.924;21.448;2022-12-11T03:03:56;99202.78;;;-2.14;100.00
45357;BME280;31092;51.924;21.448;2022-12-11T03:06:31;99180.56;;;-2.23;100.00
45357;BME280;31092;51.924;21.448;2022-12-11T03:08:57;99240.22;;;-1.85;100.00
45357;BME280;31092;51.924;21.448;2022-12-11T03:11:22;99229.31;;;-1.92;100.00
45357;BME280;31092;51.924;21.448;2022-12-11T03:13:48;99250.16;;;-1.89;100.00
45357;BME280;31092;51.924;21.448;2022-12-11T03:18:55;99165.50;;;-2.34;100.00
45357;BME280;31092;51.924;21.448;2022-12-11T03:21:27;99253.97;;;-1.80;100.00
45357;BME280;31092;51.924;21.448;2022-12-11T03:24:29;99186.03;;;-2.26;100.00
45357;BME280;31092;51.924;21.448;2022-12-11T03:26:57;99147.59;;;-2.42;100.00
45357;BME280;31092;51.924;21.448;2022-12-11T03:29:28;99233.63;;;-1.91;100.00
45357;BME280;31092;51.924;21.448;2022-12-11T03:32:05;99142.75;;;-2.48;100.00
45357;BME280;31092;51.924;21.448;2022-12-11T03:34:53;99256.81;;;-1.83;100.00
45357;BME280;31092;51.924;21.448;2022-12-11T03:37:20;99057.56;;;-3.09;100.00
45357;BME280;31092;51.924;21.448;2022-12-11T03:39:50;99168.03;;;-2.32;100.00
45357;BME280;31092;51.924;21.448;2022-12-11T03:42:18;99195.91;;;-2.17;100.00
45357;BME280;31092;51.924;21.448;2022-12-11T03:44:48;99160.66;;;-2.40;100.00
45357;BME280;31092;51.924;21.448;2022-12-11T03:47:18;99213.00;;;-2.10;100.00
45357;BME280;31092;51.924;21.448;2022-12-11T03:49:46;99199.63;;;-2.20;100.00
45357;BME280;31092;51.924;21.448;2022-12-11T03:52:13;99142.00;;;-2.50;100.00
45357;BME280;31092;51.924;21.448;2022-12-11T03:54:42;99153.81;;;-2.43;100.00
45357;BME280;31092;51.924;21.448;2022-12-11T03:57:13;99139.59;;;-2.53;100.00
45357;BME280;31092;51.924;21.448;2022-12-11T03:59:39;99198.56;;;-2.17;100.00
45357;BME280;31092;51.924;21.448;2022-12-11T04:02:05;99220.25;;;-2.01;100.00
45357;BME280;31092;51.924;21.448;2022-12-11T04:04:39;99235.75;;;-1.96;100.00
45357;BME280;31092;51.924;21.448;2022-12-11T04:07:05;99217.00;;;-2.04;100.00
45357;BME280;31092;51.924;21.448;2022-12-11T04:09:31;99224.47;;;-1.98;100.00
45357;BME280;31092;51.924;21.448;2022-12-11T04:11:57;99128.44;;;-2.56;100.00
45357;BME280;31092;51.924;21.448;2022-12-11T04:14:23;99214.56;;;-2.07;100.00
45357;BME280;31092;51.924;21.448;2022-12-11T04:17:08;99179.31;;;-2.30;100.00
45357;BME280;31092;51.924;21.448;2022-12-11T04:19:33;99136.25;;;-2.55;100.00
45357;BME280;31092;51.924;21.448;2022-12-11T04:22:17;99220.47;;;-2.04;100.00
45357;BME280;31092;51.924;21.448;2022-12-11T04:25:02;99216.38;;;-2.08;100.00
45357;BME280;31092;51.924;21.448;2022-12-11T04:27:28;99124.66;;;-2.65;100.00
45357;BME280;31092;51.924;21.448;2022-12-11T04:30:15;99222.47;;;-2.07;100.00
45357;BME280;31092;51.924;21.448;2022-12-11T04:32:41;99215.53;;;-2.08;100.00
45357;BME280;31092;51.924;21.448;2022-12-11T04:35:08;99139.72;;;-2.54;100.00
45357;BME280;31092;51.924;21.448;2022-12-11T04:37:34;99127.94;;;-2.61;100.00
45357;BME280;31092;51.924;21.448;2022-12-11T04:40:00;99223.84;;;-2.02;100.00
45357;BME280;31092;51.924;21.448;2022-12-11T04:42:25;99116.97;;;-2.68;100.00
45357;BME280;31092;51.924;21.448;2022-12-11T04:44:51;99109.28;;;-2.71;100.00
45357;BME280;31092;51.924;21.448;2022-12-11T04:47:16;99127.59;;;-2.57;100.00
45357;BME280;31092;51.924;21.448;2022-12-11T04:49:42;99180.88;;;-2.28;100.00
45357;BME280;31092;51.924;21.448;2022-12-11T04:52:07;99211.09;;;-2.08;100.00
45357;BME280;31092;51.924;21.448;2022-12-11T04:54:33;99204.22;;;-2.10;100.00
45357;BME280;31092;51.924;21.448;2022-12-11T04:56:58;99118.13;;;-2.59;100.00
45357;BME280;31092;51.924;21.448;2022-12-11T04:59:24;99186.31;;;-2.18;100.00
45357;BME280;31092;51.924;21.448;2022-12-11T05:01:49;99150.00;;;-2.38;100.00
45357;BME280;31092;51.924;21.448;2022-12-11T05:04:15;99136.19;;;-2.42;100.00
45357;BME280;31092;51.924;21.448;2022-12-11T05:06:40;99057.91;;;-2.90;100.00
45357;BME280;31092;51.924;21.448;2022-12-11T05:09:10;99149.56;;;-2.32;100.00
45357;BME280;31092;51.924;21.448;2022-12-11T05:11:36;99166.28;;;-2.21;100.00
45357;BME280;31092;51.924;21.448;2022-12-11T05:14:02;99159.94;;;-2.18;100.00
45357;BME280;31092;51.924;21.448;2022-12-11T05:16:27;99035.38;;;-2.94;100.00
45357;BME280;31092;51.924;21.448;2022-12-11T05:18:53;99133.03;;;-2.34;100.00
45357;BME280;31092;51.924;21.448;2022-12-11T05:21:18;99067.88;;;-2.69;100.00
45357;BME280;31092;51.924;21.448;2022-12-11T05:23:44;99090.59;;;-2.55;100.00
45357;BME280;31092;51.924;21.448;2022-12-11T05:26:13;99115.97;;;-2.42;100.00
45357;BME280;31092;51.924;21.448;2022-12-11T05:28:39;99015.47;;;-2.98;100.00
45357;BME280;31092;51.924;21.448;2022-12-11T05:31:09;99020.41;;;-2.93;100.00
45357;BME280;31092;51.924;21.448;2022-12-11T05:33:36;99033.97;;;-2.86;100.00
45357;BME280;31092;51.924;21.448;2022-12-11T05:36:02;99019.16;;;-3.00;100.00
45357;BME280;31092;51.924;21.448;2022-12-11T05:38:28;99092.41;;;-2.56;100.00
45357;BME280;31092;51.924;21.448;2022-12-11T05:41:01;99122.06;;;-2.41;100.00
45357;BME280;31092;51.924;21.448;2022-12-11T05:43:29;99028.22;;;-3.04;100.00
45357;BME280;31092;51.924;21.448;2022-12-11T05:45:56;99007.81;;;-3.14;100.00
45357;BME280;31092;51.924;21.448;2022-12-11T05:48:28;99000.03;;;-3.15;100.00
45357;BME280;31092;51.924;21.448;2022-12-11T05:50:58;99118.28;;;-2.50;100.00
45357;BME280;31092;51.924;21.448;2022-12-11T05:53:24;99039.69;;;-2.93;100.00
45357;BME280;31092;51.924;21.448;2022-12-11T05:55:49;99085.88;;;-2.63;100.00
45357;BME280;31092;51.924;21.448;2022-12-11T05:58:15;99026.34;;;-3.02;100.00
45357;BME280;31092;51.924;21.448;2022-12-11T06:00:41;99066.97;;;-2.81;100.00
45357;BME280;31092;51.924;21.448;2022-12-11T06:03:07;99115.78;;;-2.51;100.00
45357;BME280;31092;51.924;21.448;2022-12-11T06:05:37;99030.25;;;-3.08;100.00
45357;BME280;31092;51.924;21.448;2022-12-11T06:08:03;99113.34;;;-2.54;100.00
45357;BME280;31092;51.924;21.448;2022-12-11T06:10:28;99074.97;;;-2.82;100.00
45357;BME280;31092;51.924;21.448;2022-12-11T06:12:54;99039.09;;;-3.09;100.00
45357;BME280;31092;51.924;21.448;2022-12-11T06:15:19;99106.66;;;-2.71;100.00
45357;BME280;31092;51.924;21.448;2022-12-11T06:17:44;99122.88;;;-2.65;100.00
45357;BME280;31092;51.924;21.448;2022-12-11T06:20:10;98975.91;;;-3.58;100.00
45357;BME280;31092;51.924;21.448;2022-12-11T06:22:36;99104.06;;;-2.84;100.00
45357;BME280;31092;51.924;21.448;2022-12-11T06:25:01;99100.91;;;-2.89;100.00
45357;BME280;31092;51.924;21.448;2022-12-11T06:27:26;99112.59;;;-2.80;100.00
45357;BME280;31092;51.924;21.448;2022-12-11T06:29:52;99033.44;;;-3.28;100.00
45357;BME280;31092;51.924;21.448;2022-12-11T06:32:17;99013.75;;;-3.35;100.00
45357;BME280;31092;51.924;21.448;2022-12-11T06:34:43;99108.88;;;-2.78;100.00
45357;BME280;31092;51.924;21.448;2022-12-11T06:37:08;99032.41;;;-3.26;100.00
45357;BME280;31092;51.924;21.448;2022-12-11T06:39:34;99135.09;;;-2.63;100.00
45357;BME280;31092;51.924;21.448;2022-12-11T06:41:59;99059.44;;;-3.11;100.00
45357;BME280;31092;51.924;21.448;2022-12-11T06:44:25;99139.25;;;-2.72;100.00
45357;BME280;31092;51.924;21.448;2022-12-11T06:46:50;99070.38;;;-3.17;100.00
45357;BME280;31092;51.924;21.448;2022-12-11T06:49:16;99021.38;;;-3.44;100.00
45357;BME280;31092;51.924;21.448;2022-12-11T06:51:41;99103.13;;;-2.96;100.00
45357;BME280;31092;51.924;21.448;2022-12-11T06:54:06;99127.03;;;-2.86;100.00
45357;BME280;31092;51.924;21.448;2022-12-11T06:56:33;99077.03;;;-3.11;100.00
45357;BME280;31092;51.924;21.448;2022-12-11T06:58:59;99040.00;;;-3.34;100.00
45357;BME280;31092;51.924;21.448;2022-12-11T07:01:26;99029.06;;;-3.41;100.00
45357;BME280;31092;51.924;21.448;2022-12-11T07:03:53;99090.63;;;-3.05;100.00
45357;BME280;31092;51.924;21.448;2022-12-11T07:06:19;99022.72;;;-3.38;100.00
45357;BME280;31092;51.924;21.448;2022-12-11T07:08:45;99069.88;;;-3.09;100.00
45357;BME280;31092;51.924;21.448;2022-12-11T07:11:12;99081.41;;;-2.99;100.00
45357;BME280;31092;51.924;21.448;2022-12-11T07:13:39;99059.56;;;-3.13;100.00
45357;BME280;31092;51.924;21.448;2022-12-11T07:16:07;99054.06;;;-3.09;100.00
45357;BME280;31092;51.924;21.448;2022-12-11T07:18:40;99073.84;;;-3.04;100.00
45357;BME280;31092;51.924;21.448;2022-12-11T07:21:06;99049.72;;;-3.10;100.00
45357;BME280;31092;51.924;21.448;2022-12-11T07:23:34;98967.91;;;-3.57;100.00
45357;BME280;31092;51.924;21.448;2022-12-11T07:26:07;99064.38;;;-3.06;100.00
45357;BME280;31092;51.924;21.448;2022-12-11T07:28:33;99032.41;;;-3.26;100.00
45357;BME280;31092;51.924;21.448;2022-12-11T07:31:04;99089.03;;;-2.95;100.00
45357;BME280;31092;51.924;21.448;2022-12-11T07:33:29;98748.63;;;-5.06;100.00
45357;BME280;31092;51.924;21.448;2022-12-11T07:35:55;99050.63;;;-3.23;100.00
45357;BME280;31092;51.924;21.448;2022-12-11T07:38:20;99000.94;;;-3.53;100.00
45357;BME280;31092;51.924;21.448;2022-12-11T07:40:46;99058.81;;;-3.15;100.00
45357;BME280;31092;51.924;21.448;2022-12-11T07:43:11;98951.50;;;-3.86;100.00
45357;BME280;31092;51.924;21.448;2022-12-11T07:45:37;98970.84;;;-3.74;100.00
45357;BME280;31092;51.924;21.448;2022-12-11T07:48:02;99012.22;;;-3.51;100.00
45357;BME280;31092;51.924;21.448;2022-12-11T07:50:28;98955.19;;;-3.89;100.00
45357;BME280;31092;51.924;21.448;2022-12-11T07:52:53;98958.91;;;-3.91;100.00
45357;BME280;31092;51.924;21.448;2022-12-11T07:55:19;98965.41;;;-3.84;100.00
45357;BME280;31092;51.924;21.448;2022-12-11T07:57:44;99058.72;;;-3.26;100.00
45357;BME280;31092;51.924;21.448;2022-12-11T08:00:10;98988.03;;;-3.69;100.00
45357;BME280;31092;51.924;21.448;2022-12-11T08:02:36;99024.09;;;-3.45;100.00
45357;BME280;31092;51.924;21.448;2022-12-11T08:05:02;98963.41;;;-3.80;100.00
45357;BME280;31092;51.924;21.448;2022-12-11T08:07:27;98977.41;;;-3.80;100.00
45357;BME280;31092;51.924;21.448;2022-12-11T08:09:53;99050.53;;;-3.34;100.00
45357;BME280;31092;51.924;21.448;2022-12-11T08:12:18;98876.75;;;-4.33;100.00
45357;BME280;31092;51.924;21.448;2022-12-11T08:14:43;98937.84;;;-3.91;100.00
45357;BME280;31092;51.924;21.448;2022-12-11T08:17:16;98870.88;;;-4.37;100.00
45357;BME280;31092;51.924;21.448;2022-12-11T08:19:41;99045.44;;;-3.24;100.00
45357;BME280;31092;51.924;21.448;2022-12-11T08:22:07;98943.84;;;-3.89;100.00
45357;BME280;31092;51.924;21.448;2022-12-11T08:24:32;98986.03;;;-3.65;100.00
45357;BME280;31092;51.924;21.448;2022-12-11T08:26:58;99051.66;;;-3.25;100.00
45357;BME280;31092;51.924;21.448;2022-12-11T08:29:23;98951.50;;;-3.86;100.00
45357;BME280;31092;51.924;21.448;2022-12-11T08:31:49;98932.34;;;-3.88;100.00
45357;BME280;31092;51.924;21.448;2022-12-11T08:34:14;99034.72;;;-3.34;100.00
45357;BME280;31092;51.924;21.448;2022-12-11T08:36:40;98927.00;;;-3.87;100.00
45357;BME280;31092;51.924;21.448;2022-12-11T08:39:06;98924.16;;;-3.96;100.00
45357;BME280;31092;51.924;21.448;2022-12-11T08:41:31;99037.53;;;-3.24;100.00
45357;BME280;31092;51.924;21.448;2022-12-11T08:43:57;99043.66;;;-3.24;100.00
45357;BME280;31092;51.924;21.448;2022-12-11T08:46:27;98893.47;;;-4.08;100.00
45357;BME280;31092;51.924;21.448;2022-12-11T08:48:54;99026.59;;;-3.31;100.00
45357;BME280;31092;51.924;21.448;2022-12-11T08:51:22;99000.19;;;-3.42;100.00
45357;BME280;31092;51.924;21.448;2022-12-11T08:53:49;99001.88;;;-3.41;100.00
45357;BME280;31092;51.924;21.448;2022-12-11T08:56:18;98916.56;;;-3.88;100.00
45357;BME280;31092;51.924;21.448;2022-12-11T08:58:44;98986.19;;;-3.43;100.00
45357;BME280;31092;51.924;21.448;2022-12-11T09:01:17;99029.44;;;-3.21;100.00
45357;BME280;31092;51.924;21.448;2022-12-11T09:03:43;98932.34;;;-3.75;100.00
45357;BME280;31092;51.924;21.448;2022-12-11T09:06:14;98932.56;;;-3.78;100.00
45357;BME280;31092;51.924;21.448;2022-12-11T09:08:41;99018.81;;;-3.20;100.00
45357;BME280;31092;51.924;21.448;2022-12-11T09:11:13;98892.59;;;-3.96;100.00
45357;BME280;31092;51.924;21.448;2022-12-11T09:13:39;98905.84;;;-3.85;100.00
45357;BME280;31092;51.924;21.448;2022-12-11T09:16:07;98965.47;;;-3.47;100.00
45357;BME280;31092;51.924;21.448;2022-12-11T09:18:35;98891.13;;;-3.88;100.00
45357;BME280;31092;51.924;21.448;2022-12-11T09:21:03;98906.66;;;-3.72;100.00
45357;BME280;31092;51.924;21.448;2022-12-11T09:23:29;98879.53;;;-3.85;100.00
45357;BME280;31092;51.924;21.448;2022-12-11T09:25:55;98837.63;;;-4.12;100.00
45357;BME280;31092;51.924;21.448;2022-12-11T09:28:21;98862.44;;;-4.03;100.00
45357;BME280;31092;51.924;21.448;2022-12-11T09:30:46;98995.00;;;-3.31;100.00
45357;BME280;31092;51.924;21.448;2022-12-11T09:33:12;98947.13;;;-3.49;100.00
45357;BME280;31092;51.924;21.448;2022-12-11T09:35:37;98961.53;;;-3.42;100.00
45357;BME280;31092;51.924;21.448;2022-12-11T09:38:03;98953.84;;;-3.32;100.00
45357;BME280;31092;51.924;21.448;2022-12-11T09:40:28;98844.63;;;-4.00;100.00
45357;BME280;31092;51.924;21.448;2022-12-11T09:43:00;98957.09;;;-3.28;100.00
45357;BME280;31092;51.924;21.448;2022-12-11T09:45:28;98826.56;;;-4.04;100.00
45357;BME280;31092;51.924;21.448;2022-12-11T09:47:55;98944.03;;;-3.30;100.00
45357;BME280;31092;51.924;21.448;2022-12-11T09:50:31;98940.66;;;-3.32;100.00
45357;BME280;31092;51.924;21.448;2022-12-11T09:53:12;98844.09;;;-3.92;100.00
45357;BME280;31092;51.924;21.448;2022-12-11T09:55:54;98824.13;;;-3.95;100.00
45357;BME280;31092;51.924;21.448;2022-12-11T10:01:25;98927.41;;;-3.30;100.00
45357;BME280;31092;51.924;21.448;2022-12-11T10:12:16;98924.31;;;-3.24;100.00
45357;BME280;31092;51.924;21.448;2022-12-11T10:15:13;98922.53;;;-3.24;100.00
45357;BME280;31092;51.924;21.448;2022-12-11T10:17:43;98927.78;;;-3.24;100.00
45357;BME280;31092;51.924;21.448;2022-12-11T10:20:30;98798.53;;;-3.93;100.00
45357;BME280;31092;51.924;21.448;2022-12-11T10:23:00;98767.88;;;-4.05;100.00
45357;BME280;31092;51.924;21.448;2022-12-11T10:25:28;98894.41;;;-3.23;100.00
45357;BME280;31092;51.924;21.448;2022-12-11T10:27:55;98772.94;;;-4.02;100.00
45357;BME280;31092;51.924;21.448;2022-12-11T10:30:28;98872.78;;;-3.40;100.00
45357;BME280;31092;51.924;21.448;2022-12-11T10:35:38;98792.63;;;-3.83;100.00
45357;BME280;31092;51.924;21.448;2022-12-11T10:38:30;98890.00;;;-3.23;100.00
45357;BME280;31092;51.924;21.448;2022-12-11T10:41:44;98886.75;;;-3.26;100.00
45357;BME280;31092;51.924;21.448;2022-12-11T10:44:21;98781.38;;;-3.86;100.00
45357;BME280;31092;51.924;21.448;2022-12-11T10:49:34;98857.31;;;-3.44;100.00
45357;BME280;31092;51.924;21.448;2022-12-11T10:52:00;98845.56;;;-3.51;100.00
45357;BME280;31092;51.924;21.448;2022-12-11T10:54:39;98749.00;;;-3.99;100.00
45357;BME280;31092;51.924;21.448;2022-12-11T10:57:10;98756.88;;;-3.86;100.00
45357;BME280;31092;51.924;21.448;2022-12-11T10:59:48;98742.09;;;-4.00;100.00
45357;BME280;31092;51.924;21.448;2022-12-11T11:04:49;98832.94;;;-3.35;100.00
45357;BME280;31092;51.924;21.448;2022-12-11T11:07:20;98701.13;;;-4.15;100.00
45357;BME280;31092;51.924;21.448;2022-12-11T11:09:46;98736.66;;;-3.86;100.00
45357;BME280;31092;51.924;21.448;2022-12-11T11:12:42;98813.41;;;-3.44;100.00
45357;BME280;31092;51.924;21.448;2022-12-11T11:15:14;98631.56;;;-4.59;100.00
45357;BME280;31092;51.924;21.448;2022-12-11T11:17:46;98719.59;;;-4.04;100.00
45357;BME280;31092;51.924;21.448;2022-12-11T11:20:16;98724.00;;;-4.04;100.00
45357;BME280;31092;51.924;21.448;2022-12-11T11:22:48;98832.34;;;-3.39;100.00
45357;BME280;31092;51.924;21.448;2022-12-11T11:25:19;98761.63;;;-3.91;100.00
45357;BME280;31092;51.924;21.448;2022-12-11T11:27:53;98717.53;;;-4.12;100.00
45357;BME280;31092;51.924;21.448;2022-12-11T11:30:25;98719.81;;;-4.07;100.00
45357;BME280;31092;51.924;21.448;2022-12-11T11:33:01;98736.25;;;-3.92;100.00
45357;BME280;31092;51.924;21.448;2022-12-11T11:35:30;98655.38;;;-4.37;100.00
45357;BME280;31092;51.924;21.448;2022-12-11T11:38:11;98780.56;;;-3.62;100.00
45357;BME280;31092;51.924;21.448;2022-12-11T11:40:44;98821.19;;;-3.42;100.00
45357;BME280;31092;51.924;21.448;2022-12-11T11:46:09;98756.22;;;-3.77;100.00
45357;BME280;31092;51.924;21.448;2022-12-11T11:51:29;98789.91;;;-3.58;100.00
45357;BME280;31092;51.924;21.448;2022-12-11T11:54:00;98705.00;;;-4.08;100.00
45357;BME280;31092;51.924;21.448;2022-12-11T11:56:30;98810.16;;;-3.47;100.00
45357;BME280;31092;51.924;21.448;2022-12-11T11:59:05;98817.44;;;-3.51;100.00
45357;BME280;31092;51.924;21.448;2022-12-11T12:01:31;98724.72;;;-4.02;100.00
45357;BME280;31092;51.924;21.448;2022-12-11T12:03:57;98815.25;;;-3.57;100.00
45357;BME280;31092;51.924;21.448;2022-12-11T12:17:32;98764.13;;;-3.90;100.00
45357;BME280;31092;51.924;21.448;2022-12-11T12:20:12;98814.53;;;-3.59;100.00
45357;BME280;31092;51.924;21.448;2022-12-11T12:28:39;98820.88;;;-3.62;100.00
45357;BME280;31092;51.924;21.448;2022-12-11T12:36:39;98714.22;;;-4.26;100.00
45357;BME280;31092;51.924;21.448;2022-12-11T12:39:40;98822.25;;;-3.69;100.00
45357;BME280;31092;51.924;21.448;2022-12-11T12:42:44;98819.63;;;-3.69;100.00
45357;BME280;31092;51.924;21.448;2022-12-11T12:47:40;98694.38;;;-4.43;100.00
45357;BME280;31092;51.924;21.448;2022-12-11T12:50:12;98691.41;;;-4.39;100.00
45357;BME280;31092;51.924;21.448;2022-12-11T12:52:39;98703.28;;;-4.33;100.00
45357;BME280;31092;51.924;21.448;2022-12-11T12:55:28;98807.31;;;-3.68;100.00
45357;BME280;31092;51.924;21.448;2022-12-11T12:57:59;98806.47;;;-3.69;100.00
45357;BME280;31092;51.924;21.448;2022-12-11T13:00:39;98761.22;;;-3.98;100.00
45357;BME280;31092;51.924;21.448;2022-12-11T13:08:33;98770.97;;;-3.87;100.00
45357;BME280;31092;51.924;21.448;2022-12-11T13:11:01;98698.03;;;-4.33;100.00
45357;BME280;31092;51.924;21.448;2022-12-11T13:13:37;98699.91;;;-4.35;100.00
45357;BME280;31092;51.924;21.448;2022-12-11T13:16:23;98691.63;;;-4.42;100.00
45357;BME280;31092;51.924;21.448;2022-12-11T13:18:49;98672.34;;;-4.53;100.00
45357;BME280;31092;51.924;21.448;2022-12-11T13:21:35;98786.97;;;-3.90;100.00
45357;BME280;31092;51.924;21.448;2022-12-11T13:26:47;98800.53;;;-3.83;100.00
45357;BME280;31092;51.924;21.448;2022-12-11T13:29:39;98805.88;;;-3.85;100.00
45357;BME280;31092;51.924;21.448;2022-12-11T13:34:36;98787.41;;;-3.96;100.00
45357;BME280;31092;51.924;21.448;2022-12-11T13:37:05;98786.91;;;-4.01;100.00
45357;BME280;31092;51.924;21.448;2022-12-11T13:39:34;98770.94;;;-4.11;100.00
45357;BME280;31092;51.924;21.448;2022-12-11T13:42:05;98699.84;;;-4.46;100.00
45357;BME280;31092;51.924;21.448;2022-12-11T13:44:40;98678.84;;;-4.59;100.00
45357;BME280;31092;51.924;21.448;2022-12-11T13:47:23;98756.53;;;-4.05;100.00
45357;BME280;31092;51.924;21.448;2022-12-11T13:49:53;98706.00;;;-4.35;100.00
45357;BME280;31092;51.924;21.448;2022-12-11T13:52:23;98693.22;;;-4.39;100.00
45357;BME280;31092;51.924;21.448;2022-12-11T13:54:54;98758.41;;;-4.07;100.00
45357;BME280;31092;51.924;21.448;2022-12-11T13:57:22;98718.84;;;-4.30;100.00
45357;BME280;31092;51.924;21.448;2022-12-11T13:59:54;98749.50;;;-4.18;100.00
45357;BME280;31092;51.924;21.448;2022-12-11T14:02:31;98795.19;;;-3.95;100.00
45357;BME280;31092;51.924;21.448;2022-12-11T14:05:01;98694.41;;;-4.56;100.00
45357;BME280;31092;51.924;21.448;2022-12-11T14:07:33;98752.78;;;-4.27;100.00